Аэропорт: Казань. Казань

ICAO: UWKD

METAR:
2021-10-23 02:00:00
UWKD 230200Z 24004MPS 9999 FEW040 06/01 Q1004 R29/2/0050 NOSIG RMK QFE742/0989
METAR:
2021-10-22 23:00:00
TAF UWKD 222300Z 2300/2324 22005G12MPS 9999 BKN016 TX12/2312Z TN06/2302Z TEMPO 2300/2309 23010G15MPS